Time;durP1;ratioP1;P1;durP2;ratioP2;P2;SDS_P1;SDS_P2;PMS_P1;PMS_P2;Temp;Humidity;BMP_temperature;BMP_pressure;BME280_temperature;BME280_humidity;BME280_pressure;Samples;Min_cycle;Max_cycle;Signal;HPM_P1;HPM_P2
2021/12/10 00:02:22;;;;;;;193.45;63.92;;;2.20;99.90;;;;;;5052792;28;20107;-68
2021/12/10 00:04:48;;;;;;;184.95;61.25;;;2.20;99.90;;;;;;5052746;28;20036;-67
2021/12/10 00:07:21;;;;;;;179.10;59.50;;;2.30;99.90;;;;;;5049068;28;20116;-67
2021/12/10 00:09:51;;;;;;;165.15;57.40;;;2.30;99.90;;;;;;5033702;28;20021;-67
2021/12/10 00:12:26;;;;;;;194.70;60.72;;;2.30;99.90;;;;;;5052733;28;20028;-67
2021/12/10 00:14:53;;;;;;;175.30;59.83;;;2.30;99.90;;;;;;5052608;28;20510;-67
2021/12/10 00:17:21;;;;;;;177.45;58.70;;;2.30;99.90;;;;;;5052905;28;20017;-67
2021/12/10 00:19:51;;;;;;;177.98;59.97;;;2.30;99.90;;;;;;5052300;28;20017;-67
2021/12/10 00:22:32;;;;;;;177.80;58.60;;;2.30;99.90;;;;;;5032688;28;20494;-67
2021/12/10 00:24:58;;;;;;;188.30;63.90;;;2.30;99.90;;;;;;5032952;28;20032;-67
2021/12/10 00:27:29;;;;;;;181.95;59.65;;;2.30;99.90;;;;;;5032679;28;20025;-67
2021/12/10 00:30:05;;;;;;;178.45;58.58;;;2.30;99.90;;;;;;5032975;28;20057;-67
2021/12/10 00:32:38;;;;;;;167.40;63.42;;;2.30;99.90;;;;;;5040461;28;20057;-67
2021/12/10 00:35:09;;;;;;;167.87;58.90;;;2.40;99.90;;;;;;5055582;28;20033;-67
2021/12/10 00:37:35;;;;;;;161.07;59.50;;;2.40;99.90;;;;;;5056256;28;20060;-67
2021/12/10 00:40:05;;;;;;;173.48;61.47;;;2.40;99.90;;;;;;5041634;28;20439;-67
2021/12/10 00:42:33;;;;;;;181.93;58.10;;;2.40;99.90;;;;;;5035523;28;20041;-67
2021/12/10 00:45:00;;;;;;;172.88;57.95;;;2.40;99.90;;;;;;5036019;28;20029;-67
2021/12/10 00:47:27;;;;;;;174.93;60.13;;;2.40;99.90;;;;;;5053860;28;20396;-67
2021/12/10 00:49:53;;;;;;;169.18;56.67;;;2.40;99.90;;;;;;5055437;28;20021;-68
2021/12/10 00:52:19;;;;;;;159.68;57.80;;;2.30;99.90;;;;;;5054373;28;20051;-67
2021/12/10 00:54:45;;;;;;;164.45;61.00;;;2.40;99.90;;;;;;5047728;28;20503;-67
2021/12/10 00:57:13;;;;;;;171.23;61.53;;;2.30;99.90;;;;;;5038167;28;20034;-67
2021/12/10 00:59:40;;;;;;;202.90;61.53;;;2.30;99.90;;;;;;5055791;28;20048;-67
2021/12/10 01:02:10;;;;;;;166.80;58.15;;;2.30;99.90;;;;;;5051258;28;20112;-67
2021/12/10 01:04:40;;;;;;;169.75;61.03;;;2.30;99.90;;;;;;5055293;28;20025;-67
2021/12/10 01:07:10;;;;;;;149.45;53.65;;;2.40;99.90;;;;;;5055597;28;20025;-67
2021/12/10 01:09:40;;;;;;;167.52;57.13;;;2.30;99.90;;;;;;5054987;28;20522;-67
2021/12/10 01:12:12;;;;;;;166.32;58.70;;;2.30;99.90;;;;;;5035642;28;20017;-67
2021/12/10 01:23:49;;;;;;;147.88;54.30;;;2.30;99.90;;;;;;5035662;28;20447;-67
2021/12/10 01:28:48;;;;;;;156.85;53.00;;;2.30;99.90;;;;;;5035649;28;20029;-67
2021/12/10 01:31:15;;;;;;;163.75;59.42;;;2.30;99.90;;;;;;5035341;28;20045;-68
2021/12/10 01:33:42;;;;;;;179.50;58.85;;;2.30;99.90;;;;;;5035474;28;20079;-67
2021/12/10 01:36:08;;;;;;;160.85;56.03;;;2.30;99.90;;;;;;5035722;28;20029;-67
2021/12/10 01:38:41;;;;;;;157.00;55.75;;;2.30;99.90;;;;;;5035250;28;20038;-67
2021/12/10 01:41:12;;;;;;;169.57;59.10;;;2.30;99.90;;;;;;5034849;28;20045;-67
2021/12/10 01:43:40;;;;;;;167.00;57.47;;;2.30;99.90;;;;;;5034720;28;20485;-67
2021/12/10 01:46:18;;;;;;;159.15;55.30;;;2.30;99.90;;;;;;5036837;28;20552;-67
2021/12/10 01:48:52;;;;;;;176.63;55.20;;;2.30;99.90;;;;;;5035277;28;20388;-67
2021/12/10 01:51:23;;;;;;;151.73;55.60;;;2.30;99.90;;;;;;5039471;28;20094;-66
2021/12/10 01:53:54;;;;;;;166.15;57.63;;;2.30;99.90;;;;;;5046589;28;20064;-67
2021/12/10 01:56:28;;;;;;;161.02;56.17;;;2.30;99.90;;;;;;5035338;28;20120;-67
2021/12/10 01:58:55;;;;;;;174.40;58.05;;;2.30;99.90;;;;;;5034784;28;20026;-67
2021/12/10 02:01:29;;;;;;;162.60;54.92;;;2.30;99.90;;;;;;5034668;28;20029;-67
2021/12/10 02:03:55;;;;;;;166.23;56.17;;;2.30;99.90;;;;;;5038727;28;20029;-67
2021/12/10 02:06:21;;;;;;;162.70;57.05;;;2.30;99.90;;;;;;5018481;28;20120;-67
2021/12/10 02:08:47;;;;;;;152.05;54.53;;;2.30;99.90;;;;;;5034645;28;20101;-67
2021/12/10 02:11:15;;;;;;;159.40;57.38;;;2.30;99.90;;;;;;5047745;28;20052;-67
2021/12/10 02:13:41;;;;;;;160.57;54.13;;;2.30;99.90;;;;;;5053849;28;20082;-67
2021/12/10 02:16:07;;;;;;;153.52;54.25;;;2.30;99.90;;;;;;5044390;28;20369;-67
2021/12/10 02:18:34;;;;;;;163.50;57.67;;;2.30;99.90;;;;;;5054371;28;20063;-67
2021/12/10 02:21:02;;;;;;;145.50;53.35;;;2.30;99.90;;;;;;5051087;28;20158;-66
2021/12/10 02:23:35;;;;;;;153.80;51.88;;;2.30;99.90;;;;;;5045107;28;20412;-67
2021/12/10 02:26:03;;;;;;;151.50;53.70;;;2.30;99.90;;;;;;5033581;28;20027;-67
2021/12/10 02:28:29;;;;;;;145.57;51.30;;;2.30;99.90;;;;;;5035314;28;20369;-67
2021/12/10 02:30:56;;;;;;;164.35;54.55;;;2.30;99.90;;;;;;5051413;28;20128;-67
2021/12/10 02:33:22;;;;;;;159.30;56.60;;;2.30;99.90;;;;;;5053756;28;20025;-67
2021/12/10 02:35:48;;;;;;;156.38;52.35;;;2.20;99.90;;;;;;5053788;28;20518;-67
2021/12/10 02:38:19;;;;;;;150.95;55.03;;;2.20;99.90;;;;;;5052810;28;20100;-67
2021/12/10 02:40:46;;;;;;;151.32;55.33;;;2.20;99.90;;;;;;5054251;28;20017;-67
2021/12/10 02:43:14;;;;;;;165.55;55.22;;;2.20;99.90;;;;;;5054212;28;20021;-67
2021/12/10 02:45:44;;;;;;;155.70;53.67;;;2.20;99.90;;;;;;5053770;28;20032;-67
2021/12/10 02:48:10;;;;;;;149.48;52.08;;;2.20;99.90;;;;;;5053323;28;20075;-67
2021/12/10 02:50:36;;;;;;;145.80;53.38;;;2.20;99.90;;;;;;5053730;28;20431;-67
2021/12/10 02:53:05;;;;;;;171.65;53.75;;;2.10;99.90;;;;;;5053594;28;20077;-67
2021/12/10 02:55:33;;;;;;;160.07;55.65;;;2.10;99.90;;;;;;5051953;28;20104;-67
2021/12/10 02:58:04;;;;;;;161.18;54.33;;;2.10;99.90;;;;;;5035242;28;20492;-67
2021/12/10 03:00:35;;;;;;;150.05;52.03;;;2.10;99.90;;;;;;5053830;28;20040;-68
2021/12/10 03:03:01;;;;;;;161.10;53.83;;;2.10;99.90;;;;;;5053819;28;20072;-68
2021/12/10 03:05:26;;;;;;;163.82;55.30;;;2.20;99.90;;;;;;5053340;28;20076;-68
2021/12/10 03:07:52;;;;;;;143.05;52.58;;;2.20;99.90;;;;;;5053620;28;20039;-68
2021/12/10 03:10:22;;;;;;;164.98;56.10;;;2.20;99.90;;;;;;5050745;28;20021;-67
2021/12/10 03:12:49;;;;;;;145.05;52.40;;;2.20;99.90;;;;;;5053562;28;20072;-67
2021/12/10 03:15:16;;;;;;;163.32;53.50;;;2.20;99.90;;;;;;5050800;28;20056;-67
2021/12/10 03:17:42;;;;;;;147.60;51.67;;;2.20;99.90;;;;;;5033361;28;20119;-67
2021/12/10 03:20:11;;;;;;;162.13;55.45;;;2.20;99.90;;;;;;5033361;28;20064;-67
2021/12/10 03:22:38;;;;;;;155.82;52.97;;;2.20;99.90;;;;;;5052247;28;20025;-67
2021/12/10 03:25:10;;;;;;;166.07;54.30;;;2.20;99.90;;;;;;5036768;28;20370;-68
2021/12/10 03:27:36;;;;;;;156.63;51.55;;;2.20;99.90;;;;;;5033729;28;20028;-67
2021/12/10 03:30:07;;;;;;;148.02;52.58;;;2.10;99.90;;;;;;5033489;28;20119;-68
2021/12/10 03:32:33;;;;;;;147.90;50.13;;;2.20;99.90;;;;;;5032714;28;20101;-67
2021/12/10 03:35:03;;;;;;;148.05;52.58;;;2.20;99.90;;;;;;5015208;28;20493;-67
2021/12/10 03:37:28;;;;;;;153.20;50.42;;;2.20;99.90;;;;;;5033464;28;20021;-67
2021/12/10 03:39:54;;;;;;;158.77;52.85;;;2.20;99.90;;;;;;5033375;28;20503;-67
2021/12/10 03:42:21;;;;;;;162.88;53.80;;;2.20;99.90;;;;;;5033110;28;20118;-67
2021/12/10 03:44:47;;;;;;;150.10;52.50;;;2.20;99.90;;;;;;5032462;28;20108;-67
2021/12/10 03:47:13;;;;;;;156.65;53.45;;;2.20;99.90;;;;;;5032969;28;20450;-67
2021/12/10 03:49:40;;;;;;;145.35;53.75;;;2.20;99.90;;;;;;5033092;28;20048;-67
2021/12/10 03:52:07;;;;;;;145.25;50.17;;;2.20;99.90;;;;;;5033250;28;20053;-67
2021/12/10 03:54:34;;;;;;;159.15;50.28;;;2.20;99.90;;;;;;5032371;28;20021;-67
2021/12/10 03:56:59;;;;;;;149.07;51.28;;;2.30;99.90;;;;;;5032983;28;20033;-67
2021/12/10 03:59:25;;;;;;;137.65;51.80;;;2.30;99.90;;;;;;5032939;28;20026;-67
2021/12/10 04:01:55;;;;;;;150.25;52.00;;;2.20;99.90;;;;;;5032904;28;20378;-67
2021/12/10 04:04:28;;;;;;;143.60;51.50;;;2.20;99.90;;;;;;5032433;28;20033;-67
2021/12/10 04:06:55;;;;;;;151.57;51.25;;;2.30;99.90;;;;;;5039444;28;20021;-67
2021/12/10 04:09:22;;;;;;;134.80;48.38;;;2.20;99.90;;;;;;5054444;28;20029;-67
2021/12/10 04:11:48;;;;;;;140.50;50.55;;;2.20;99.90;;;;;;5037261;28;20475;-67
2021/12/10 04:14:13;;;;;;;151.40;50.72;;;2.20;99.90;;;;;;5036954;28;20057;-67
2021/12/10 04:16:39;;;;;;;130.05;48.45;;;2.20;99.90;;;;;;5039101;28;20027;-66
2021/12/10 04:19:08;;;;;;;145.10;51.92;;;2.30;99.90;;;;;;5036111;28;20041;-67
2021/12/10 04:21:39;;;;;;;147.18;51.53;;;2.30;99.90;;;;;;5036893;28;20025;-67
2021/12/10 04:24:11;;;;;;;138.00;48.13;;;2.30;99.90;;;;;;5036862;28;20049;-68
2021/12/10 04:26:37;;;;;;;144.38;52.75;;;2.20;99.90;;;;;;5036682;28;20473;-67
2021/12/10 04:29:03;;;;;;;152.30;51.63;;;2.20;99.90;;;;;;5050275;28;20416;-67
2021/12/10 04:31:29;;;;;;;148.60;49.08;;;2.20;99.90;;;;;;5056380;28;20025;-67
2021/12/10 04:33:54;;;;;;;157.07;52.22;;;2.20;99.90;;;;;;5056323;28;20108;-67
2021/12/10 04:36:20;;;;;;;155.18;50.65;;;2.20;99.90;;;;;;5056134;28;20037;-67
2021/12/10 04:38:46;;;;;;;151.85;52.83;;;2.20;99.90;;;;;;5055736;28;20104;-67
2021/12/10 04:41:13;;;;;;;149.65;49.97;;;2.20;99.90;;;;;;5038274;28;20053;-67
2021/12/10 04:43:40;;;;;;;139.70;50.25;;;2.20;99.90;;;;;;5054821;28;20104;-67
2021/12/10 04:46:06;;;;;;;143.23;52.10;;;2.20;99.90;;;;;;5036025;28;20469;-67
2021/12/10 04:48:45;;;;;;;141.77;50.00;;;2.20;99.90;;;;;;5035802;28;20032;-66
2021/12/10 04:51:11;;;;;;;163.25;54.97;;;2.20;99.90;;;;;;5036390;28;20029;-67
2021/12/10 04:53:36;;;;;;;140.93;50.97;;;2.10;99.90;;;;;;5036236;28;20083;-67
2021/12/10 04:56:02;;;;;;;145.75;50.05;;;2.00;99.90;;;;;;5055653;28;20055;-67
2021/12/10 04:58:28;;;;;;;146.52;50.13;;;2.00;99.90;;;;;;5056099;28;20025;-67
2021/12/10 05:00:54;;;;;;;147.02;51.10;;;1.80;99.90;;;;;;5055791;28;20033;-67
2021/12/10 05:03:19;;;;;;;154.95;52.20;;;1.80;99.90;;;;;;5055311;28;20033;-67
2021/12/10 05:05:46;;;;;;;155.18;52.90;;;1.80;99.90;;;;;;5055536;28;20025;-67
2021/12/10 05:08:13;;;;;;;156.05;51.40;;;1.80;99.90;;;;;;5055639;28;20017;-67
2021/12/10 05:10:39;;;;;;;158.07;52.30;;;1.80;99.90;;;;;;5055722;28;20025;-67
2021/12/10 05:13:05;;;;;;;167.13;54.38;;;1.80;99.90;;;;;;5055026;28;20029;-67
2021/12/10 05:15:33;;;;;;;150.27;52.97;;;1.80;99.90;;;;;;5053318;28;20143;-67
2021/12/10 05:18:00;;;;;;;143.98;51.15;;;1.90;99.90;;;;;;5055508;28;20066;-67
2021/12/10 05:20:33;;;;;;;169.32;54.03;;;1.90;99.90;;;;;;5036034;28;20021;-67
2021/12/10 05:22:59;;;;;;;;;;;2.00;99.90;;;;;;5055976;28;20025;-67
2021/12/10 05:25:27;;;;;;;152.55;50.92;;;2.00;99.90;;;;;;5055261;28;20011;-67
2021/12/10 05:27:53;;;;;;;167.32;52.97;;;2.00;99.90;;;;;;5050685;28;20048;-67
2021/12/10 05:30:21;;;;;;;150.60;52.22;;;2.00;99.90;;;;;;5055145;28;20029;-67
2021/12/10 05:32:47;;;;;;;150.90;49.90;;;1.90;99.90;;;;;;5055271;28;20071;-67
2021/12/10 05:35:12;;;;;;;155.82;52.40;;;2.00;99.90;;;;;;5054650;28;20025;-68
2021/12/10 05:37:39;;;;;;;156.15;52.72;;;2.00;99.90;;;;;;5055065;28;20052;-68
2021/12/10 05:40:07;;;;;;;160.48;53.10;;;1.90;99.90;;;;;;5041702;28;20029;-68
2021/12/10 05:42:33;;;;;;;157.80;54.65;;;1.90;99.90;;;;;;5034593;28;20044;-68
2021/12/10 05:44:58;;;;;;;153.50;54.47;;;1.90;99.90;;;;;;5017208;28;20473;-68
2021/12/10 05:47:24;;;;;;;159.90;54.13;;;1.90;99.90;;;;;;5035039;28;20026;-67
2021/12/10 05:49:49;;;;;;;177.23;56.35;;;1.90;99.90;;;;;;5034985;28;20028;-68
2021/12/10 05:52:15;;;;;;;157.40;55.60;;;1.90;99.90;;;;;;5034548;28;20026;-68
2021/12/10 05:54:41;;;;;;;167.10;53.08;;;1.90;99.90;;;;;;5034811;28;20080;-68
2021/12/10 05:57:08;;;;;;;162.90;55.05;;;1.90;99.90;;;;;;5035425;28;20079;-68
2021/12/10 05:59:34;;;;;;;174.18;53.33;;;1.90;99.90;;;;;;5034811;28;20026;-68
2021/12/10 06:01:59;;;;;;;161.13;54.40;;;1.90;99.90;;;;;;5034191;28;20396;-68
2021/12/10 06:04:27;;;;;;;153.57;50.50;;;1.90;99.90;;;;;;5016857;28;20037;-68
2021/12/10 06:06:54;;;;;;;154.27;52.00;;;1.90;99.90;;;;;;5044971;28;20025;-67
2021/12/10 06:09:21;;;;;;;158.88;52.53;;;1.90;99.90;;;;;;5053961;28;20496;-68
2021/12/10 06:11:46;;;;;;;156.63;53.42;;;1.90;99.90;;;;;;5053959;28;20025;-68
2021/12/10 06:14:13;;;;;;;154.35;50.55;;;1.90;99.90;;;;;;5054362;28;20021;-67
2021/12/10 06:16:39;;;;;;;142.80;49.75;;;1.90;99.90;;;;;;5053685;28;20441;-67
2021/12/10 06:19:06;;;;;;;156.38;49.25;;;1.90;99.90;;;;;;5034692;28;20036;-68
2021/12/10 06:21:33;;;;;;;152.32;51.30;;;1.90;99.90;;;;;;5016019;28;20056;-68
2021/12/10 06:24:00;;;;;;;161.88;51.10;;;2.00;99.90;;;;;;5034588;28;20049;-68
2021/12/10 06:26:25;;;;;;;164.40;51.17;;;1.90;99.90;;;;;;5034152;28;20029;-68
2021/12/10 06:28:51;;;;;;;176.27;54.13;;;1.90;99.90;;;;;;5016053;28;20022;-68
2021/12/10 06:31:19;;;;;;;166.82;53.05;;;1.90;99.90;;;;;;5033980;28;20045;-68
2021/12/10 06:33:45;;;;;;;160.25;52.05;;;1.90;99.90;;;;;;5034141;28;20029;-68
2021/12/10 06:36:15;;;;;;;151.07;49.47;;;1.90;99.90;;;;;;5033271;28;20060;-68
2021/12/10 06:38:41;;;;;;;160.80;53.10;;;1.90;99.90;;;;;;5034033;28;20104;-68
2021/12/10 06:41:07;;;;;;;156.90;51.15;;;1.90;99.90;;;;;;5033314;28;20036;-68
2021/12/10 06:43:33;;;;;;;151.82;51.75;;;1.90;99.90;;;;;;5053547;28;20025;-68
2021/12/10 06:46:01;;;;;;;144.30;48.10;;;1.90;99.90;;;;;;5047389;28;20031;-68
2021/12/10 06:48:28;;;;;;;168.32;49.28;;;1.90;99.90;;;;;;5035287;28;20044;-68
2021/12/10 06:51:01;;;;;;;160.13;50.67;;;1.90;99.90;;;;;;5033839;28;20385;-68
2021/12/10 06:53:29;;;;;;;157.75;50.60;;;1.90;99.90;;;;;;5035867;28;20025;-68
2021/12/10 06:55:56;;;;;;;136.00;49.53;;;1.90;99.90;;;;;;5015441;28;20469;-67
2021/12/10 06:58:25;;;;;;;167.00;50.40;;;1.90;99.90;;;;;;5033693;28;20031;-67
2021/12/10 07:00:59;;;;;;;155.40;51.42;;;1.90;99.90;;;;;;5033643;28;20485;-68
2021/12/10 07:03:27;;;;;;;143.20;50.17;;;1.90;99.90;;;;;;5042487;28;20021;-68
2021/12/10 07:05:55;;;;;;;158.18;51.05;;;1.90;99.90;;;;;;5053337;28;20052;-68
2021/12/10 07:08:23;;;;;;;130.20;46.97;;;1.90;99.90;;;;;;5052670;28;20549;-67
2021/12/10 07:10:50;;;;;;;160.50;52.45;;;1.90;99.90;;;;;;5046923;28;20040;-68
2021/12/10 07:13:16;;;;;;;152.18;51.05;;;1.90;99.90;;;;;;5053355;28;20021;-68
2021/12/10 07:15:47;;;;;;;151.52;50.28;;;1.90;99.90;;;;;;5052953;28;20032;-68
2021/12/10 07:18:13;;;;;;;160.15;51.00;;;1.90;99.90;;;;;;5051125;28;20044;-68
2021/12/10 07:20:41;;;;;;;152.52;54.78;;;1.90;99.90;;;;;;5053280;28;20025;-68
2021/12/10 07:23:07;;;;;;;160.35;51.42;;;1.80;99.90;;;;;;5053478;28;20086;-68
2021/12/10 07:25:32;;;;;;;151.88;50.03;;;1.80;99.90;;;;;;5049527;28;20358;-68
2021/12/10 07:27:58;;;;;;;150.82;48.13;;;1.90;99.90;;;;;;5033152;28;20108;-68
2021/12/10 07:30:25;;;;;;;157.93;50.92;;;1.90;99.90;;;;;;5033078;28;20029;-68
2021/12/10 07:32:51;;;;;;;140.80;47.83;;;2.00;99.90;;;;;;5032977;28;20493;-68
2021/12/10 07:35:17;;;;;;;143.30;46.83;;;1.90;99.90;;;;;;5035256;28;20041;-68
2021/12/10 07:37:43;;;;;;;137.88;48.88;;;2.00;99.90;;;;;;5033136;28;20030;-67
2021/12/10 07:40:13;;;;;;;144.77;46.75;;;1.90;99.90;;;;;;5050841;28;20029;-67
2021/12/10 07:42:38;;;;;;;120.93;43.40;;;2.00;99.90;;;;;;5033300;28;20112;-67
2021/12/10 07:45:06;;;;;;;148.48;47.88;;;2.00;99.90;;;;;;5040732;28;20076;-67
2021/12/10 07:47:35;;;;;;;143.27;49.25;;;2.00;99.90;;;;;;5032938;28;20449;-68
2021/12/10 07:50:04;;;;;;;162.18;48.20;;;2.00;99.90;;;;;;5032778;28;20084;-68
2021/12/10 07:52:33;;;;;;;153.32;50.78;;;2.00;99.90;;;;;;5027457;28;20461;-68
2021/12/10 07:55:00;;;;;;;152.25;50.58;;;2.10;99.90;;;;;;5033128;28;20026;-68
2021/12/10 07:57:27;;;;;;;140.07;48.00;;;2.10;99.90;;;;;;5051660;28;20048;-68
2021/12/10 07:59:53;;;;;;;141.55;45.67;;;2.00;99.90;;;;;;5052875;28;20025;-68
2021/12/10 08:02:19;;;;;;;126.53;44.65;;;2.00;99.90;;;;;;5039231;28;20060;-68
2021/12/10 08:04:45;;;;;;;134.95;45.53;;;2.00;99.90;;;;;;5032779;28;20028;-68
2021/12/10 08:07:13;;;;;;;145.93;47.13;;;2.10;99.90;;;;;;5032840;28;20033;-68
2021/12/10 08:09:42;;;;;;;142.60;47.38;;;2.10;99.90;;;;;;5032860;28;20491;-68
2021/12/10 08:12:08;;;;;;;139.60;44.72;;;2.10;99.90;;;;;;5051376;28;20025;-68
2021/12/10 08:14:34;;;;;;;151.13;46.70;;;2.10;99.90;;;;;;5052119;28;20017;-68
2021/12/10 08:17:00;;;;;;;131.13;46.00;;;2.10;99.90;;;;;;5034859;28;20099;-67
2021/12/10 08:19:25;;;;;;;136.65;45.20;;;2.10;99.90;;;;;;5052599;28;20442;-67
2021/12/10 08:21:51;;;;;;;135.45;45.40;;;2.10;99.90;;;;;;5053175;28;20388;-68
2021/12/10 08:24:17;;;;;;;128.13;43.92;;;2.20;99.90;;;;;;5052565;28;20064;-67
2021/12/10 08:26:43;;;;;;;130.02;44.47;;;2.20;99.90;;;;;;5034728;28;20025;-68
2021/12/10 08:29:10;;;;;;;121.35;43.78;;;2.20;99.90;;;;;;5052089;28;20025;-67
2021/12/10 08:31:36;;;;;;;137.50;45.65;;;2.20;99.90;;;;;;5052553;28;20027;-67
2021/12/10 08:34:02;;;;;;;128.10;47.10;;;2.20;99.90;;;;;;5052755;28;20017;-68
2021/12/10 08:36:29;;;;;;;125.78;45.75;;;2.20;99.90;;;;;;5034497;28;20087;-68
2021/12/10 08:38:55;;;;;;;124.82;43.55;;;2.20;99.90;;;;;;5052886;28;20557;-68
2021/12/10 08:41:25;;;;;;;135.52;45.67;;;2.20;99.90;;;;;;5053018;28;20115;-68
2021/12/10 08:43:51;;;;;;;140.95;48.33;;;2.20;99.90;;;;;;5051878;28;20098;-68
2021/12/10 08:46:17;;;;;;;143.25;47.05;;;2.20;99.90;;;;;;5052298;28;20102;-68
2021/12/10 08:48:44;;;;;;;150.48;45.53;;;2.20;99.90;;;;;;5052380;28;20472;-68
2021/12/10 08:51:15;;;;;;;143.13;49.13;;;2.20;99.90;;;;;;5052377;28;20404;-67
2021/12/10 08:53:41;;;;;;;130.70;48.70;;;2.20;99.90;;;;;;5051495;28;20036;-68
2021/12/10 08:56:08;;;;;;;150.60;50.17;;;2.20;99.90;;;;;;5055649;28;20480;-67
2021/12/10 08:58:34;;;;;;;149.82;49.20;;;2.30;99.90;;;;;;5041729;28;20116;-67
2021/12/10 09:01:09;;;;;;;157.45;47.40;;;2.30;99.90;;;;;;5018135;28;20032;-67
2021/12/10 09:03:35;;;;;;;136.45;47.03;;;2.30;99.90;;;;;;5017578;28;20465;-67
2021/12/10 09:06:03;;;;;;;129.93;45.67;;;2.30;99.90;;;;;;5035619;28;20068;-67
2021/12/10 09:08:29;;;;;;;141.45;45.67;;;2.40;99.90;;;;;;5037366;28;20366;-67
2021/12/10 09:10:55;;;;;;;145.57;50.00;;;2.40;99.90;;;;;;5055886;28;20021;-67
2021/12/10 09:13:21;;;;;;;139.63;48.45;;;2.40;99.90;;;;;;5055891;28;20021;-67
2021/12/10 09:15:59;;;;;;;153.23;47.45;;;2.40;99.90;;;;;;5036466;28;20068;-67
2021/12/10 09:18:25;;;;;;;131.15;44.60;;;2.40;99.90;;;;;;5036173;28;20099;-67
2021/12/10 09:20:55;;;;;;;121.85;44.95;;;2.40;99.90;;;;;;5051460;28;20029;-67
2021/12/10 09:23:24;;;;;;;127.22;44.30;;;2.40;99.90;;;;;;5055560;28;20033;-67
2021/12/10 09:25:52;;;;;;;152.38;47.17;;;2.50;99.90;;;;;;5047148;28;20427;-67
2021/12/10 09:28:18;;;;;;;130.98;46.83;;;2.50;99.90;;;;;;5035320;28;20028;-68
2021/12/10 09:30:48;;;;;;;126.22;44.60;;;2.50;99.90;;;;;;5035291;28;20030;-68
2021/12/10 09:33:14;;;;;;;123.07;44.08;;;2.50;99.90;;;;;;5035018;28;20017;-68
2021/12/10 09:35:40;;;;;;;150.27;48.03;;;2.60;99.90;;;;;;5034448;28;20079;-67
2021/12/10 09:38:06;;;;;;;127.43;45.50;;;2.60;99.90;;;;;;5035209;28;20070;-67
2021/12/10 09:40:38;;;;;;;131.82;47.30;;;2.60;99.90;;;;;;5035370;28;20483;-67
2021/12/10 09:43:07;;;;;;;115.90;43.42;;;2.70;99.90;;;;;;5035130;28;20026;-67
2021/12/10 09:45:36;;;;;;;131.02;44.75;;;2.70;99.90;;;;;;5034393;28;20025;-68
2021/12/10 09:48:05;;;;;;;131.65;46.53;;;2.70;99.90;;;;;;5034818;28;20037;-68
2021/12/10 09:50:34;;;;;;;131.10;44.15;;;2.70;99.90;;;;;;5035233;28;20071;-68
2021/12/10 09:53:00;;;;;;;135.82;44.67;;;2.70;99.90;;;;;;5034962;28;20024;-68
2021/12/10 09:55:28;;;;;;;125.85;44.80;;;2.70;99.90;;;;;;5034935;28;20480;-68
2021/12/10 09:57:55;;;;;;;113.53;43.25;;;2.80;99.90;;;;;;5034456;28;20033;-68
2021/12/10 10:00:39;;;;;;;127.78;44.90;;;2.90;99.90;;;;;;5034804;28;20049;-68
2021/12/10 10:03:10;;;;;;;131.07;45.95;;;3.00;99.90;;;;;;5035054;28;20021;-68
2021/12/10 10:05:37;;;;;;;120.05;41.25;;;3.00;99.90;;;;;;5034480;28;20056;-68
2021/12/10 10:08:08;;;;;;;119.63;42.92;;;3.00;99.90;;;;;;5034564;28;20032;-68
2021/12/10 10:10:34;;;;;;;120.82;45.15;;;3.00;99.90;;;;;;5034830;28;20067;-68
2021/12/10 10:13:04;;;;;;;124.05;44.33;;;3.00;99.90;;;;;;5049777;28;20029;-68
2021/12/10 10:15:33;;;;;;;133.77;45.03;;;3.00;99.90;;;;;;5054346;28;20060;-68
2021/12/10 10:18:02;;;;;;;118.45;43.55;;;3.00;99.90;;;;;;5054390;28;20055;-68
2021/12/10 10:20:30;;;;;;;116.63;41.40;;;3.00;99.90;;;;;;5054338;28;20059;-68
2021/12/10 10:22:56;;;;;;;119.60;43.90;;;3.00;99.90;;;;;;5045127;28;20160;-68
2021/12/10 10:25:25;;;;;;;116.22;42.05;;;3.00;99.90;;;;;;5034320;28;20065;-68
2021/12/10 10:27:51;;;;;;;114.53;41.63;;;3.00;99.90;;;;;;5036783;28;20026;-68
2021/12/10 10:30:31;;;;;;;107.25;38.95;;;3.00;99.90;;;;;;5054103;28;20094;-68
2021/12/10 10:33:03;;;;;;;127.18;42.28;;;3.00;99.90;;;;;;5054419;28;20017;-68
2021/12/10 10:35:34;;;;;;;107.35;39.45;;;3.00;99.90;;;;;;5054013;28;20092;-67
2021/12/10 10:38:01;;;;;;;112.15;40.85;;;3.00;99.90;;;;;;5033523;28;20096;-68
2021/12/10 10:40:34;;;;;;;108.47;41.65;;;3.10;99.90;;;;;;5033781;28;20033;-68
2021/12/10 10:43:00;;;;;;;102.05;40.72;;;3.10;99.90;;;;;;5051519;28;20048;-68
2021/12/10 10:45:32;;;;;;;102.13;39.72;;;3.10;99.90;;;;;;5053775;28;20033;-68
2021/12/10 10:47:58;;;;;;;97.47;36.38;;;3.10;99.90;;;;;;5042862;28;20071;-68
2021/12/10 10:50:34;;;;;;;94.05;35.42;;;3.20;99.90;;;;;;5053597;28;20469;-67
2021/12/10 10:53:05;;;;;;;94.95;38.92;;;3.20;99.90;;;;;;5054021;28;20021;-68
2021/12/10 10:55:35;;;;;;;91.90;35.65;;;3.20;99.90;;;;;;5048604;28;20036;-68
2021/12/10 10:58:03;;;;;;;97.65;37.58;;;3.30;99.90;;;;;;5053595;28;20025;-68
2021/12/10 11:00:51;;;;;;;84.50;35.67;;;3.20;99.90;;;;;;5053864;28;20021;-68
2021/12/10 11:03:24;;;;;;;98.80;36.85;;;3.30;99.90;;;;;;5035236;28;20049;-68
2021/12/10 11:05:56;;;;;;;97.55;39.08;;;3.30;99.90;;;;;;5033875;28;20029;-68
2021/12/10 11:08:38;;;;;;;95.65;37.53;;;3.40;99.90;;;;;;5035744;28;20025;-68
2021/12/10 11:11:09;;;;;;;91.95;38.25;;;3.40;99.90;;;;;;5041699;28;20034;-68
2021/12/10 11:13:35;;;;;;;98.05;38.63;;;3.40;99.90;;;;;;5033479;28;20029;-68
2021/12/10 11:16:08;;;;;;;103.28;37.42;;;3.40;99.90;;;;;;5033348;28;20017;-68
2021/12/10 11:19:08;;;;;;;86.30;35.10;;;3.50;99.90;;;;;;5033054;28;20104;-68
2021/12/10 11:21:42;;;;;;;94.30;36.30;;;3.50;99.90;;;;;;5033363;28;20477;-68
2021/12/10 11:24:20;;;;;;;88.95;36.78;;;3.60;99.90;;;;;;5032933;28;20026;-68
2021/12/10 11:26:49;;;;;;;107.68;36.53;;;3.60;99.90;;;;;;5033552;28;20036;-68
2021/12/10 11:29:35;;;;;;;101.13;38.72;;;3.60;99.90;;;;;;5015518;28;20025;-68
2021/12/10 11:32:08;;;;;;;91.13;35.42;;;3.70;99.90;;;;;;5035599;28;20025;-68
2021/12/10 11:34:48;;;;;;;83.90;34.80;;;3.70;99.90;;;;;;5033243;28;20079;-68
2021/12/10 11:37:15;;;;;;;101.82;37.47;;;3.70;99.90;;;;;;5148046;22;20052;-71
2021/12/10 11:39:51;;;;;;;81.38;35.03;;;3.70;99.90;;;;;;5073393;28;20092;-71
2021/12/10 11:42:36;;;;;;;86.35;34.70;;;3.60;99.90;;;;;;5073178;28;20511;-71
2021/12/10 11:45:27;;;;;;;78.32;33.47;;;3.70;99.90;;;;;;5073106;28;20021;-70
2021/12/10 11:47:53;;;;;;;97.93;37.13;;;3.70;99.90;;;;;;5040609;28;20036;-71
2021/12/10 11:50:21;;;;;;;88.32;32.90;;;3.70;99.90;;;;;;5032999;28;20021;-70
2021/12/10 11:53:13;;;;;;;86.25;34.10;;;3.70;99.90;;;;;;5032914;28;20522;-70
2021/12/10 11:56:04;;;;;;;90.55;34.50;;;3.70;99.90;;;;;;5033117;28;20075;-70
2021/12/10 11:58:30;;;;;;;66.60;30.02;;;3.80;99.90;;;;;;5033938;28;20087;-71
2021/12/10 12:00:55;;;;;;;72.13;30.00;;;3.80;99.90;;;;;;5032988;28;20116;-71
2021/12/10 12:03:29;;;;;;;77.40;31.35;;;3.80;99.90;;;;;;5048230;28;20029;-71
2021/12/10 12:05:54;;;;;;;70.90;29.90;;;3.80;99.90;;;;;;5052825;28;20036;-70
2021/12/10 12:08:23;;;;;;;83.90;33.13;;;3.90;99.90;;;;;;5040740;28;20037;-70
2021/12/10 12:10:56;;;;;;;70.07;29.55;;;3.90;99.90;;;;;;5041758;28;20021;-70
2021/12/10 12:13:36;;;;;;;73.37;29.27;;;3.90;99.90;;;;;;5053102;28;20020;-71
2021/12/10 12:16:14;;;;;;;79.88;31.00;;;3.90;99.90;;;;;;5053205;28;20255;-70
2021/12/10 12:18:47;;;;;;;83.03;29.75;;;4.00;99.90;;;;;;5052186;28;20500;-70
2021/12/10 12:21:37;;;;;;;67.53;29.83;;;4.00;99.90;;;;;;5053029;28;20032;-70
2021/12/10 12:27:15;;;;;;;69.38;28.75;;;4.10;99.90;;;;;;5052677;28;20098;-70
2021/12/10 12:29:53;;;;;;;69.13;27.85;;;4.10;99.90;;;;;;5055672;28;20017;-70
2021/12/10 12:32:32;;;;;;;69.70;26.73;;;4.10;99.90;;;;;;5056267;28;20025;-70
2021/12/10 12:35:16;;;;;;;60.75;24.92;;;4.20;99.90;;;;;;5055523;28;20025;-71
2021/12/10 12:37:42;;;;;;;59.95;26.83;;;4.10;99.90;;;;;;5049073;28;20036;-70
2021/12/10 12:40:08;;;;;;;70.50;27.13;;;4.20;99.90;;;;;;5056248;28;20025;-70
2021/12/10 12:42:38;;;;;;;58.72;25.85;;;4.20;99.90;;;;;;5054140;28;20029;-71
2021/12/10 12:45:09;;;;;;;74.70;27.92;;;4.20;99.90;;;;;;5056049;28;20060;-70
2021/12/10 12:47:46;;;;;;;62.50;25.77;;;4.20;99.90;;;;;;5053441;28;20025;-70
2021/12/10 12:50:25;;;;;;;57.55;24.08;;;4.20;99.90;;;;;;5056161;28;20056;-70
2021/12/10 12:52:55;;;;;;;58.55;23.45;;;4.20;99.90;;;;;;5034315;28;20017;-70